sensor_id;sensor_type;location;lat;lon;timestamp;temperature;humidity
33460;DHT22;19795;53.160;6.612;2023-07-24T03:41:27;15.60;99.90
33460;DHT22;19795;53.160;6.612;2023-07-24T03:49:04;15.60;99.90
33460;DHT22;19795;53.160;6.612;2023-07-24T03:51:29;15.60;99.90
33460;DHT22;19795;53.160;6.612;2023-07-24T03:53:55;15.60;99.90
33460;DHT22;19795;53.160;6.612;2023-07-24T03:56:21;15.60;99.90
33460;DHT22;19795;53.160;6.612;2023-07-24T03:58:46;15.70;99.90
33460;DHT22;19795;53.160;6.612;2023-07-24T04:01:12;15.70;99.90
33460;DHT22;19795;53.160;6.612;2023-07-24T04:03:38;15.70;99.90
33460;DHT22;19795;53.160;6.612;2023-07-24T04:06:04;15.70;99.90
33460;DHT22;19795;53.160;6.612;2023-07-24T04:08:29;15.80;99.90
33460;DHT22;19795;53.160;6.612;2023-07-24T04:10:55;15.80;99.90
33460;DHT22;19795;53.160;6.612;2023-07-24T04:13:23;15.80;99.90
33460;DHT22;19795;53.160;6.612;2023-07-24T04:15:49;15.80;99.90
33460;DHT22;19795;53.160;6.612;2023-07-24T04:18:15;15.80;99.90
33460;DHT22;19795;53.160;6.612;2023-07-24T04:20:41;15.80;99.90
33460;DHT22;19795;53.160;6.612;2023-07-24T04:23:09;15.90;99.90
33460;DHT22;19795;53.160;6.612;2023-07-24T04:25:35;15.90;99.90
33460;DHT22;19795;53.160;6.612;2023-07-24T04:28:00;15.90;99.90
33460;DHT22;19795;53.160;6.612;2023-07-24T04:30:26;15.90;99.90
33460;DHT22;19795;53.160;6.612;2023-07-24T04:32:52;16.00;99.90
33460;DHT22;19795;53.160;6.612;2023-07-24T04:35:18;15.90;99.90
33460;DHT22;19795;53.160;6.612;2023-07-24T04:37:43;16.00;99.90
33460;DHT22;19795;53.160;6.612;2023-07-24T04:40:09;16.00;99.90
33460;DHT22;19795;53.160;6.612;2023-07-24T04:42:35;16.10;99.90
33460;DHT22;19795;53.160;6.612;2023-07-24T04:45:01;16.10;99.90
33460;DHT22;19795;53.160;6.612;2023-07-24T04:47:27;16.20;99.90
33460;DHT22;19795;53.160;6.612;2023-07-24T04:49:52;16.20;99.90
33460;DHT22;19795;53.160;6.612;2023-07-24T04:52:18;16.20;99.90
33460;DHT22;19795;53.160;6.612;2023-07-24T04:54:44;16.20;99.90
33460;DHT22;19795;53.160;6.612;2023-07-24T04:57:10;16.20;99.90
33460;DHT22;19795;53.160;6.612;2023-07-24T04:59:35;16.30;99.90
33460;DHT22;19795;53.160;6.612;2023-07-24T05:02:01;16.30;99.90
33460;DHT22;19795;53.160;6.612;2023-07-24T05:04:27;16.30;99.90
33460;DHT22;19795;53.160;6.612;2023-07-24T05:06:53;16.30;99.90
33460;DHT22;19795;53.160;6.612;2023-07-24T05:09:18;16.30;99.90
33460;DHT22;19795;53.160;6.612;2023-07-24T05:11:44;16.20;99.90
33460;DHT22;19795;53.160;6.612;2023-07-24T05:14:10;16.40;99.90
33460;DHT22;19795;53.160;6.612;2023-07-24T05:16:36;16.50;99.90
33460;DHT22;19795;53.160;6.612;2023-07-24T05:19:01;16.50;99.90
33460;DHT22;19795;53.160;6.612;2023-07-24T05:21:27;16.50;99.90
33460;DHT22;19795;53.160;6.612;2023-07-24T05:23:53;16.60;99.90
33460;DHT22;19795;53.160;6.612;2023-07-24T05:26:18;16.60;99.90
33460;DHT22;19795;53.160;6.612;2023-07-24T05:28:44;16.70;99.90
33460;DHT22;19795;53.160;6.612;2023-07-24T05:31:11;16.70;99.90
33460;DHT22;19795;53.160;6.612;2023-07-24T05:33:36;16.80;99.90
33460;DHT22;19795;53.160;6.612;2023-07-24T05:36:03;16.90;99.90
33460;DHT22;19795;53.160;6.612;2023-07-24T05:38:29;17.10;99.90
33460;DHT22;19795;53.160;6.612;2023-07-24T05:40:59;17.20;99.90
33460;DHT22;19795;53.160;6.612;2023-07-24T05:43:26;17.30;99.90
33460;DHT22;19795;53.160;6.612;2023-07-24T05:45:53;17.50;99.90
33460;DHT22;19795;53.160;6.612;2023-07-24T05:48:20;17.50;99.90
33460;DHT22;19795;53.160;6.612;2023-07-24T05:50:45;17.60;99.90
33460;DHT22;19795;53.160;6.612;2023-07-24T05:53:11;17.60;99.90
33460;DHT22;19795;53.160;6.612;2023-07-24T05:55:37;17.60;99.90
33460;DHT22;19795;53.160;6.612;2023-07-24T05:58:03;17.50;99.90
33460;DHT22;19795;53.160;6.612;2023-07-24T06:00:28;17.60;99.90
33460;DHT22;19795;53.160;6.612;2023-07-24T06:02:54;17.60;99.90
33460;DHT22;19795;53.160;6.612;2023-07-24T06:05:20;17.60;99.90
33460;DHT22;19795;53.160;6.612;2023-07-24T06:07:51;17.50;99.90
33460;DHT22;19795;53.160;6.612;2023-07-24T06:10:17;17.40;99.90
33460;DHT22;19795;53.160;6.612;2023-07-24T06:12:43;17.30;99.90
33460;DHT22;19795;53.160;6.612;2023-07-24T06:15:11;17.30;99.90
33460;DHT22;19795;53.160;6.612;2023-07-24T06:17:36;17.30;99.90
33460;DHT22;19795;53.160;6.612;2023-07-24T06:20:02;17.40;99.90
33460;DHT22;19795;53.160;6.612;2023-07-24T06:22:28;17.50;99.90
33460;DHT22;19795;53.160;6.612;2023-07-24T06:24:53;17.60;99.90
33460;DHT22;19795;53.160;6.612;2023-07-24T06:27:19;17.70;99.90
33460;DHT22;19795;53.160;6.612;2023-07-24T06:29:47;18.00;99.90
33460;DHT22;19795;53.160;6.612;2023-07-24T06:32:13;18.20;99.90
33460;DHT22;19795;53.160;6.612;2023-07-24T06:34:39;18.40;99.90
33460;DHT22;19795;53.160;6.612;2023-07-24T06:37:04;18.50;99.90
33460;DHT22;19795;53.160;6.612;2023-07-24T06:39:30;18.60;99.90
33460;DHT22;19795;53.160;6.612;2023-07-24T06:41:56;18.60;99.90
33460;DHT22;19795;53.160;6.612;2023-07-24T06:44:22;18.70;99.90
33460;DHT22;19795;53.160;6.612;2023-07-24T06:46:48;18.80;99.90
33460;DHT22;19795;53.160;6.612;2023-07-24T06:49:13;18.80;99.90
33460;DHT22;19795;53.160;6.612;2023-07-24T06:51:39;18.80;99.90
33460;DHT22;19795;53.160;6.612;2023-07-24T06:54:05;18.80;99.90
33460;DHT22;19795;53.160;6.612;2023-07-24T06:56:31;18.80;99.90
33460;DHT22;19795;53.160;6.612;2023-07-24T06:58:57;18.90;99.90
33460;DHT22;19795;53.160;6.612;2023-07-24T07:01:23;18.90;99.90
33460;DHT22;19795;53.160;6.612;2023-07-24T07:03:49;18.90;99.90
33460;DHT22;19795;53.160;6.612;2023-07-24T07:06:15;18.90;99.90
33460;DHT22;19795;53.160;6.612;2023-07-24T07:08:41;19.00;99.90
33460;DHT22;19795;53.160;6.612;2023-07-24T07:11:09;19.00;99.90
33460;DHT22;19795;53.160;6.612;2023-07-24T07:13:35;18.90;99.90
33460;DHT22;19795;53.160;6.612;2023-07-24T07:16:01;18.90;99.90
33460;DHT22;19795;53.160;6.612;2023-07-24T07:18:27;19.00;99.90
33460;DHT22;19795;53.160;6.612;2023-07-24T07:20:56;19.10;99.90
33460;DHT22;19795;53.160;6.612;2023-07-24T07:23:22;19.20;99.90
33460;DHT22;19795;53.160;6.612;2023-07-24T07:25:48;19.30;99.90
33460;DHT22;19795;53.160;6.612;2023-07-24T07:28:15;19.30;99.90
33460;DHT22;19795;53.160;6.612;2023-07-24T07:30:47;19.40;99.90
33460;DHT22;19795;53.160;6.612;2023-07-24T07:33:13;19.50;99.90
33460;DHT22;19795;53.160;6.612;2023-07-24T07:35:38;19.60;99.90
33460;DHT22;19795;53.160;6.612;2023-07-24T07:38:04;19.70;99.90
33460;DHT22;19795;53.160;6.612;2023-07-24T07:40:30;19.90;99.90
33460;DHT22;19795;53.160;6.612;2023-07-24T07:42:56;19.90;99.90
33460;DHT22;19795;53.160;6.612;2023-07-24T07:45:24;19.80;99.90
33460;DHT22;19795;53.160;6.612;2023-07-24T07:47:50;19.80;99.90
33460;DHT22;19795;53.160;6.612;2023-07-24T07:50:18;19.70;99.90
33460;DHT22;19795;53.160;6.612;2023-07-24T07:52:44;19.80;99.90
33460;DHT22;19795;53.160;6.612;2023-07-24T07:55:10;19.90;99.90
33460;DHT22;19795;53.160;6.612;2023-07-24T07:57:36;19.80;99.90
33460;DHT22;19795;53.160;6.612;2023-07-24T08:00:05;19.90;99.90
33460;DHT22;19795;53.160;6.612;2023-07-24T08:02:31;19.80;99.90
33460;DHT22;19795;53.160;6.612;2023-07-24T08:05:00;19.70;99.90
33460;DHT22;19795;53.160;6.612;2023-07-24T08:07:26;19.70;99.90
33460;DHT22;19795;53.160;6.612;2023-07-24T08:09:52;19.80;99.90
33460;DHT22;19795;53.160;6.612;2023-07-24T08:12:18;20.10;99.90
33460;DHT22;19795;53.160;6.612;2023-07-24T08:14:43;20.20;99.90
33460;DHT22;19795;53.160;6.612;2023-07-24T08:17:09;20.40;99.90
33460;DHT22;19795;53.160;6.612;2023-07-24T08:19:34;20.60;99.90
33460;DHT22;19795;53.160;6.612;2023-07-24T08:22:00;20.60;99.90
33460;DHT22;19795;53.160;6.612;2023-07-24T08:24:26;20.70;99.90
33460;DHT22;19795;53.160;6.612;2023-07-24T08:26:51;20.90;99.90
33460;DHT22;19795;53.160;6.612;2023-07-24T08:29:17;21.00;99.90
33460;DHT22;19795;53.160;6.612;2023-07-24T08:31:43;21.30;99.90
33460;DHT22;19795;53.160;6.612;2023-07-24T08:34:08;21.20;99.90
33460;DHT22;19795;53.160;6.612;2023-07-24T08:36:34;21.00;99.90
33460;DHT22;19795;53.160;6.612;2023-07-24T08:38:59;20.90;99.90
33460;DHT22;19795;53.160;6.612;2023-07-24T08:41:25;20.80;99.90
33460;DHT22;19795;53.160;6.612;2023-07-24T08:43:51;20.90;99.90
33460;DHT22;19795;53.160;6.612;2023-07-24T08:46:18;20.80;99.90
33460;DHT22;19795;53.160;6.612;2023-07-24T08:48:44;20.70;99.90
33460;DHT22;19795;53.160;6.612;2023-07-24T08:51:12;20.70;99.90
33460;DHT22;19795;53.160;6.612;2023-07-24T08:53:40;20.90;99.90
33460;DHT22;19795;53.160;6.612;2023-07-24T08:56:07;20.70;99.90
33460;DHT22;19795;53.160;6.612;2023-07-24T08:58:34;20.50;99.90
33460;DHT22;19795;53.160;6.612;2023-07-24T09:01:03;20.50;99.90
33460;DHT22;19795;53.160;6.612;2023-07-24T09:03:30;20.60;99.90
33460;DHT22;19795;53.160;6.612;2023-07-24T09:05:56;20.80;99.90
33460;DHT22;19795;53.160;6.612;2023-07-24T09:08:29;20.90;99.90
33460;DHT22;19795;53.160;6.612;2023-07-24T09:10:55;21.10;99.90
33460;DHT22;19795;53.160;6.612;2023-07-24T09:13:21;21.10;99.90
33460;DHT22;19795;53.160;6.612;2023-07-24T09:15:47;21.00;99.90
33460;DHT22;19795;53.160;6.612;2023-07-24T09:18:12;20.90;99.90
33460;DHT22;19795;53.160;6.612;2023-07-24T09:20:43;21.00;99.90
33460;DHT22;19795;53.160;6.612;2023-07-24T09:23:10;21.30;99.90
33460;DHT22;19795;53.160;6.612;2023-07-24T09:25:38;21.60;99.90
33460;DHT22;19795;53.160;6.612;2023-07-24T09:28:17;22.20;99.90
33460;DHT22;19795;53.160;6.612;2023-07-24T09:30:52;22.70;99.90
33460;DHT22;19795;53.160;6.612;2023-07-24T09:33:18;22.70;99.90
33460;DHT22;19795;53.160;6.612;2023-07-24T09:35:44;23.30;99.90
33460;DHT22;19795;53.160;6.612;2023-07-24T09:38:11;24.20;99.90
33460;DHT22;19795;53.160;6.612;2023-07-24T09:40:44;25.20;1.00
33460;DHT22;19795;53.160;6.612;2023-07-24T09:45:43;24.00;25.70
33460;DHT22;19795;53.160;6.612;2023-07-24T09:48:12;23.10;71.60
33460;DHT22;19795;53.160;6.612;2023-07-24T09:50:41;23.30;99.90
33460;DHT22;19795;53.160;6.612;2023-07-24T09:53:20;24.30;50.50
33460;DHT22;19795;53.160;6.612;2023-07-24T09:55:56;24.40;2.60
33460;DHT22;19795;53.160;6.612;2023-07-24T09:58:24;24.80;1.00
33460;DHT22;19795;53.160;6.612;2023-07-24T10:00:51;25.40;1.00
33460;DHT22;19795;53.160;6.612;2023-07-24T10:03:17;24.50;1.00
33460;DHT22;19795;53.160;6.612;2023-07-24T10:05:44;24.70;1.00
33460;DHT22;19795;53.160;6.612;2023-07-24T10:08:10;25.10;65.50
33460;DHT22;19795;53.160;6.612;2023-07-24T10:10:38;25.00;1.00
33460;DHT22;19795;53.160;6.612;2023-07-24T10:13:04;24.50;1.00
33460;DHT22;19795;53.160;6.612;2023-07-24T10:15:31;23.90;1.00
33460;DHT22;19795;53.160;6.612;2023-07-24T10:18:07;23.50;15.10
33460;DHT22;19795;53.160;6.612;2023-07-24T10:20:34;23.10;93.30
33460;DHT22;19795;53.160;6.612;2023-07-24T10:23:07;24.10;48.90
33460;DHT22;19795;53.160;6.612;2023-07-24T10:25:35;25.20;1.10
33460;DHT22;19795;53.160;6.612;2023-07-24T10:28:06;26.00;99.90
33460;DHT22;19795;53.160;6.612;2023-07-24T10:30:43;26.40;1.00
33460;DHT22;19795;53.160;6.612;2023-07-24T10:33:20;26.20;1.00
33460;DHT22;19795;53.160;6.612;2023-07-24T10:35:49;27.00;99.90
33460;DHT22;19795;53.160;6.612;2023-07-24T10:38:17;27.10;1.00
33460;DHT22;19795;53.160;6.612;2023-07-24T10:40:47;27.30;99.90
33460;DHT22;19795;53.160;6.612;2023-07-24T10:43:19;26.60;99.90
33460;DHT22;19795;53.160;6.612;2023-07-24T10:45:53;25.90;99.90
33460;DHT22;19795;53.160;6.612;2023-07-24T10:48:21;25.70;1.00
33460;DHT22;19795;53.160;6.612;2023-07-24T10:50:48;25.40;1.00
33460;DHT22;19795;53.160;6.612;2023-07-24T10:53:16;25.10;99.90
33460;DHT22;19795;53.160;6.612;2023-07-24T10:55:43;25.30;1.00
33460;DHT22;19795;53.160;6.612;2023-07-24T10:58:27;25.50;1.00
33460;DHT22;19795;53.160;6.612;2023-07-24T11:01:09;26.30;99.90
33460;DHT22;19795;53.160;6.612;2023-07-24T11:03:37;26.60;99.90
33460;DHT22;19795;53.160;6.612;2023-07-24T11:06:03;27.30;99.90
33460;DHT22;19795;53.160;6.612;2023-07-24T11:08:30;27.70;1.00
33460;DHT22;19795;53.160;6.612;2023-07-24T11:10:59;28.10;1.00
33460;DHT22;19795;53.160;6.612;2023-07-24T11:13:27;28.10;99.90
33460;DHT22;19795;53.160;6.612;2023-07-24T11:15:54;28.70;99.90
33460;DHT22;19795;53.160;6.612;2023-07-24T11:18:21;28.70;99.90
33460;DHT22;19795;53.160;6.612;2023-07-24T11:20:51;28.40;11.70
33460;DHT22;19795;53.160;6.612;2023-07-24T11:23:18;28.40;99.90
33460;DHT22;19795;53.160;6.612;2023-07-24T11:25:47;28.30;1.00
33460;DHT22;19795;53.160;6.612;2023-07-24T11:28:14;27.50;1.00
33460;DHT22;19795;53.160;6.612;2023-07-24T11:30:43;27.50;99.90
33460;DHT22;19795;53.160;6.612;2023-07-24T11:33:11;25.40;99.90
33460;DHT22;19795;53.160;6.612;2023-07-24T11:35:37;23.90;4.20
33460;DHT22;19795;53.160;6.612;2023-07-24T11:38:05;23.20;61.30
33460;DHT22;19795;53.160;6.612;2023-07-24T11:42:58;21.90;99.90
33460;DHT22;19795;53.160;6.612;2023-07-24T11:45:23;21.30;99.90
33460;DHT22;19795;53.160;6.612;2023-07-24T11:47:50;21.40;99.90
33460;DHT22;19795;53.160;6.612;2023-07-24T11:50:20;22.00;99.90
33460;DHT22;19795;53.160;6.612;2023-07-24T11:52:48;22.40;99.90
33460;DHT22;19795;53.160;6.612;2023-07-24T11:55:16;23.40;66.90
33460;DHT22;19795;53.160;6.612;2023-07-24T11:57:42;23.30;49.20
33460;DHT22;19795;53.160;6.612;2023-07-24T12:00:20;23.60;94.70
33460;DHT22;19795;53.160;6.612;2023-07-24T12:02:45;23.60;87.80
33460;DHT22;19795;53.160;6.612;2023-07-24T12:05:11;24.10;73.90
33460;DHT22;19795;53.160;6.612;2023-07-24T12:07:43;24.30;52.70
33460;DHT22;19795;53.160;6.612;2023-07-24T12:10:13;24.20;1.00
33460;DHT22;19795;53.160;6.612;2023-07-24T12:12:48;24.10;23.50
33460;DHT22;19795;53.160;6.612;2023-07-24T12:15:17;24.00;1.00
33460;DHT22;19795;53.160;6.612;2023-07-24T12:17:43;24.10;20.60
33460;DHT22;19795;53.160;6.612;2023-07-24T12:20:10;24.90;1.00
33460;DHT22;19795;53.160;6.612;2023-07-24T12:22:37;24.90;1.00
33460;DHT22;19795;53.160;6.612;2023-07-24T12:25:04;25.30;1.00
33460;DHT22;19795;53.160;6.612;2023-07-24T12:27:30;26.20;99.90
33460;DHT22;19795;53.160;6.612;2023-07-24T12:29:57;24.60;1.00
33460;DHT22;19795;53.160;6.612;2023-07-24T12:32:41;23.40;72.00
33460;DHT22;19795;53.160;6.612;2023-07-24T12:35:08;23.00;67.40
33460;DHT22;19795;53.160;6.612;2023-07-24T12:37:34;22.70;48.90
33460;DHT22;19795;53.160;6.612;2023-07-24T12:40:03;22.40;81.10
33460;DHT22;19795;53.160;6.612;2023-07-24T12:42:56;22.20;94.00
33460;DHT22;19795;53.160;6.612;2023-07-24T12:45:22;21.20;99.90
33460;DHT22;19795;53.160;6.612;2023-07-24T12:47:53;20.60;99.90
33460;DHT22;19795;53.160;6.612;2023-07-24T12:50:31;20.30;99.90
33460;DHT22;19795;53.160;6.612;2023-07-24T12:52:56;20.30;99.90
33460;DHT22;19795;53.160;6.612;2023-07-24T12:55:22;20.50;99.90
33460;DHT22;19795;53.160;6.612;2023-07-24T12:57:48;20.60;99.90
33460;DHT22;19795;53.160;6.612;2023-07-24T13:00:20;20.40;99.90
33460;DHT22;19795;53.160;6.612;2023-07-24T13:09:35;19.80;99.90
33460;DHT22;19795;53.160;6.612;2023-07-24T13:12:01;20.70;99.90
33460;DHT22;19795;53.160;6.612;2023-07-24T13:14:27;20.90;99.90
33460;DHT22;19795;53.160;6.612;2023-07-24T13:16:56;20.70;99.90
33460;DHT22;19795;53.160;6.612;2023-07-24T13:19:22;21.00;99.90
33460;DHT22;19795;53.160;6.612;2023-07-24T13:21:50;21.80;99.90
33460;DHT22;19795;53.160;6.612;2023-07-24T13:24:22;22.40;99.90
33460;DHT22;19795;53.160;6.612;2023-07-24T13:26:54;22.80;99.90
33460;DHT22;19795;53.160;6.612;2023-07-24T13:29:50;23.30;99.90
33460;DHT22;19795;53.160;6.612;2023-07-24T13:32:24;23.30;99.90
33460;DHT22;19795;53.160;6.612;2023-07-24T13:34:50;23.30;99.90
33460;DHT22;19795;53.160;6.612;2023-07-24T13:37:16;23.80;99.90
33460;DHT22;19795;53.160;6.612;2023-07-24T13:39:44;25.00;99.90
33460;DHT22;19795;53.160;6.612;2023-07-24T13:42:10;25.10;99.90
33460;DHT22;19795;53.160;6.612;2023-07-24T13:45:23;24.00;99.90
33460;DHT22;19795;53.160;6.612;2023-07-24T13:48:29;23.40;99.90
33460;DHT22;19795;53.160;6.612;2023-07-24T13:51:15;22.70;99.90
33460;DHT22;19795;53.160;6.612;2023-07-24T13:53:43;21.30;99.90
33460;DHT22;19795;53.160;6.612;2023-07-24T14:03:21;20.60;99.90
33460;DHT22;19795;53.160;6.612;2023-07-24T14:09:10;19.90;99.90
33460;DHT22;19795;53.160;6.612;2023-07-24T14:11:46;19.90;99.90
33460;DHT22;19795;53.160;6.612;2023-07-24T14:27:49;18.90;99.90
33460;DHT22;19795;53.160;6.612;2023-07-24T14:30:30;19.10;99.90
33460;DHT22;19795;53.160;6.612;2023-07-24T14:32:58;19.40;99.90
33460;DHT22;19795;53.160;6.612;2023-07-24T14:35:24;19.40;99.90
33460;DHT22;19795;53.160;6.612;2023-07-24T14:37:50;19.40;99.90
33460;DHT22;19795;53.160;6.612;2023-07-24T14:40:18;19.20;99.90
33460;DHT22;19795;53.160;6.612;2023-07-24T14:42:54;19.50;99.90
33460;DHT22;19795;53.160;6.612;2023-07-24T14:45:20;19.30;99.90
33460;DHT22;19795;53.160;6.612;2023-07-24T14:47:46;18.90;99.90
33460;DHT22;19795;53.160;6.612;2023-07-24T14:50:11;18.60;99.90
33460;DHT22;19795;53.160;6.612;2023-07-24T14:52:57;18.70;99.90
33460;DHT22;19795;53.160;6.612;2023-07-24T14:55:25;18.60;99.90
33460;DHT22;19795;53.160;6.612;2023-07-24T14:57:51;18.50;99.90
33460;DHT22;19795;53.160;6.612;2023-07-24T15:00:17;18.50;99.90
33460;DHT22;19795;53.160;6.612;2023-07-24T15:02:43;18.80;99.90
33460;DHT22;19795;53.160;6.612;2023-07-24T15:05:10;19.20;99.90
33460;DHT22;19795;53.160;6.612;2023-07-24T15:07:36;20.00;99.90
33460;DHT22;19795;53.160;6.612;2023-07-24T15:10:02;19.70;99.90
33460;DHT22;19795;53.160;6.612;2023-07-24T15:12:34;19.70;99.90
33460;DHT22;19795;53.160;6.612;2023-07-24T15:14:59;19.00;99.90
33460;DHT22;19795;53.160;6.612;2023-07-24T15:17:25;18.80;99.90
33460;DHT22;19795;53.160;6.612;2023-07-24T15:19:51;18.50;99.90
33460;DHT22;19795;53.160;6.612;2023-07-24T15:22:16;18.40;99.90
33460;DHT22;19795;53.160;6.612;2023-07-24T15:24:42;18.70;99.90
33460;DHT22;19795;53.160;6.612;2023-07-24T15:27:08;18.70;99.90
33460;DHT22;19795;53.160;6.612;2023-07-24T15:29:35;18.80;99.90
33460;DHT22;19795;53.160;6.612;2023-07-24T15:32:01;19.10;99.90
33460;DHT22;19795;53.160;6.612;2023-07-24T15:34:27;18.70;99.90
33460;DHT22;19795;53.160;6.612;2023-07-24T15:36:52;18.90;99.90
33460;DHT22;19795;53.160;6.612;2023-07-24T15:39:18;18.60;99.90
33460;DHT22;19795;53.160;6.612;2023-07-24T15:41:44;18.10;99.90
33460;DHT22;19795;53.160;6.612;2023-07-24T15:44:10;18.00;99.90
33460;DHT22;19795;53.160;6.612;2023-07-24T15:46:36;17.80;99.90
33460;DHT22;19795;53.160;6.612;2023-07-24T15:49:01;17.50;99.90
33460;DHT22;19795;53.160;6.612;2023-07-24T15:51:27;17.30;99.90
33460;DHT22;19795;53.160;6.612;2023-07-24T15:53:53;17.30;99.90
33460;DHT22;19795;53.160;6.612;2023-07-24T15:56:20;17.00;99.90
33460;DHT22;19795;53.160;6.612;2023-07-24T15:58:46;17.00;99.90
33460;DHT22;19795;53.160;6.612;2023-07-24T16:01:12;17.10;99.90
33460;DHT22;19795;53.160;6.612;2023-07-24T16:03:38;17.10;99.90
33460;DHT22;19795;53.160;6.612;2023-07-24T16:06:04;17.00;99.90
33460;DHT22;19795;53.160;6.612;2023-07-24T16:08:30;16.90;99.90
33460;DHT22;19795;53.160;6.612;2023-07-24T16:10:59;17.10;99.90
33460;DHT22;19795;53.160;6.612;2023-07-24T16:13:25;17.00;99.90
33460;DHT22;19795;53.160;6.612;2023-07-24T16:15:50;17.20;99.90
33460;DHT22;19795;53.160;6.612;2023-07-24T16:18:16;17.10;99.90
33460;DHT22;19795;53.160;6.612;2023-07-24T16:20:42;17.10;99.90
33460;DHT22;19795;53.160;6.612;2023-07-24T16:23:07;17.00;99.90
33460;DHT22;19795;53.160;6.612;2023-07-24T16:25:33;17.00;99.90
33460;DHT22;19795;53.160;6.612;2023-07-24T16:27:59;17.00;99.90
33460;DHT22;19795;53.160;6.612;2023-07-24T16:30:24;17.00;99.90
33460;DHT22;19795;53.160;6.612;2023-07-24T16:32:50;17.00;99.90
33460;DHT22;19795;53.160;6.612;2023-07-24T16:35:16;17.00;99.90
33460;DHT22;19795;53.160;6.612;2023-07-24T16:37:41;17.00;99.90
33460;DHT22;19795;53.160;6.612;2023-07-24T16:40:07;16.90;99.90
33460;DHT22;19795;53.160;6.612;2023-07-24T16:42:34;16.90;99.90
33460;DHT22;19795;53.160;6.612;2023-07-24T16:45:00;16.90;99.90
33460;DHT22;19795;53.160;6.612;2023-07-24T16:47:28;16.90;99.90
33460;DHT22;19795;53.160;6.612;2023-07-24T16:49:54;16.90;99.90
33460;DHT22;19795;53.160;6.612;2023-07-24T16:52:20;17.10;99.90
33460;DHT22;19795;53.160;6.612;2023-07-24T16:54:46;17.00;99.90
33460;DHT22;19795;53.160;6.612;2023-07-24T16:57:11;17.00;99.90
33460;DHT22;19795;53.160;6.612;2023-07-24T16:59:37;17.00;99.90
33460;DHT22;19795;53.160;6.612;2023-07-24T17:02:03;17.00;99.90
33460;DHT22;19795;53.160;6.612;2023-07-24T17:04:29;17.10;99.90
33460;DHT22;19795;53.160;6.612;2023-07-24T17:06:55;17.10;99.90
33460;DHT22;19795;53.160;6.612;2023-07-24T17:09:21;16.80;99.90
33460;DHT22;19795;53.160;6.612;2023-07-24T17:11:49;16.70;99.90
33460;DHT22;19795;53.160;6.612;2023-07-24T17:14:15;16.70;99.90
33460;DHT22;19795;53.160;6.612;2023-07-24T17:16:40;16.80;99.90
33460;DHT22;19795;53.160;6.612;2023-07-24T17:19:06;16.80;99.90
33460;DHT22;19795;53.160;6.612;2023-07-24T17:21:35;16.70;99.90
33460;DHT22;19795;53.160;6.612;2023-07-24T17:24:01;16.60;99.90
33460;DHT22;19795;53.160;6.612;2023-07-24T17:26:27;16.60;99.90
33460;DHT22;19795;53.160;6.612;2023-07-24T17:28:58;16.60;99.90
33460;DHT22;19795;53.160;6.612;2023-07-24T17:31:27;16.70;99.90
33460;DHT22;19795;53.160;6.612;2023-07-24T17:33:53;16.70;99.90
33460;DHT22;19795;53.160;6.612;2023-07-24T17:36:18;16.70;99.90
33460;DHT22;19795;53.160;6.612;2023-07-24T17:38:44;16.70;99.90
33460;DHT22;19795;53.160;6.612;2023-07-24T17:41:15;16.70;99.90
33460;DHT22;19795;53.160;6.612;2023-07-24T17:43:46;16.70;99.90
33460;DHT22;19795;53.160;6.612;2023-07-24T17:46:13;16.50;99.90
33460;DHT22;19795;53.160;6.612;2023-07-24T17:48:39;16.60;99.90
33460;DHT22;19795;53.160;6.612;2023-07-24T17:51:04;16.60;99.90
33460;DHT22;19795;53.160;6.612;2023-07-24T17:53:30;16.60;99.90
33460;DHT22;19795;53.160;6.612;2023-07-24T17:55:56;16.50;99.90
33460;DHT22;19795;53.160;6.612;2023-07-24T17:58:22;16.60;99.90
33460;DHT22;19795;53.160;6.612;2023-07-24T18:00:48;16.60;99.90
33460;DHT22;19795;53.160;6.612;2023-07-24T18:03:13;16.60;99.90
33460;DHT22;19795;53.160;6.612;2023-07-24T18:05:39;16.50;99.90
33460;DHT22;19795;53.160;6.612;2023-07-24T18:08:05;16.40;99.90
33460;DHT22;19795;53.160;6.612;2023-07-24T18:10:31;16.40;99.90
33460;DHT22;19795;53.160;6.612;2023-07-24T18:12:57;16.40;99.90
33460;DHT22;19795;53.160;6.612;2023-07-24T18:15:22;16.40;99.90
33460;DHT22;19795;53.160;6.612;2023-07-24T18:17:48;16.40;99.90
33460;DHT22;19795;53.160;6.612;2023-07-24T18:20:14;16.30;99.90
33460;DHT22;19795;53.160;6.612;2023-07-24T18:22:40;16.20;99.90
33460;DHT22;19795;53.160;6.612;2023-07-24T18:25:07;16.20;99.90
33460;DHT22;19795;53.160;6.612;2023-07-24T18:27:33;16.20;99.90
33460;DHT22;19795;53.160;6.612;2023-07-24T18:29:59;16.10;99.90
33460;DHT22;19795;53.160;6.612;2023-07-24T18:32:25;16.00;99.90
33460;DHT22;19795;53.160;6.612;2023-07-24T18:34:51;15.60;99.90
33460;DHT22;19795;53.160;6.612;2023-07-24T18:37:16;15.10;99.90
33460;DHT22;19795;53.160;6.612;2023-07-24T18:39:42;14.80;99.90
33460;DHT22;19795;53.160;6.612;2023-07-24T18:42:08;14.70;99.90
33460;DHT22;19795;53.160;6.612;2023-07-24T18:44:34;14.60;99.90
33460;DHT22;19795;53.160;6.612;2023-07-24T18:47:00;14.60;99.90
33460;DHT22;19795;53.160;6.612;2023-07-24T18:49:25;14.60;99.90
33460;DHT22;19795;53.160;6.612;2023-07-24T18:51:51;14.70;99.90
33460;DHT22;19795;53.160;6.612;2023-07-24T18:54:18;14.70;99.90
33460;DHT22;19795;53.160;6.612;2023-07-24T18:56:43;14.70;99.90
33460;DHT22;19795;53.160;6.612;2023-07-24T18:59:09;14.70;99.90
33460;DHT22;19795;53.160;6.612;2023-07-24T19:01:35;14.80;99.90
33460;DHT22;19795;53.160;6.612;2023-07-24T19:04:01;14.80;99.90
33460;DHT22;19795;53.160;6.612;2023-07-24T19:06:27;14.80;99.90
33460;DHT22;19795;53.160;6.612;2023-07-24T19:08:52;14.80;99.90
33460;DHT22;19795;53.160;6.612;2023-07-24T19:11:18;14.80;99.90
33460;DHT22;19795;53.160;6.612;2023-07-24T19:13:44;14.80;99.90
33460;DHT22;19795;53.160;6.612;2023-07-24T19:16:10;14.70;99.90
33460;DHT22;19795;53.160;6.612;2023-07-24T19:18:35;14.70;99.90
33460;DHT22;19795;53.160;6.612;2023-07-24T19:21:01;14.80;99.90
33460;DHT22;19795;53.160;6.612;2023-07-24T19:23:30;14.60;99.90
33460;DHT22;19795;53.160;6.612;2023-07-24T19:25:55;14.70;99.90
33460;DHT22;19795;53.160;6.612;2023-07-24T19:28:21;14.70;99.90
33460;DHT22;19795;53.160;6.612;2023-07-24T19:30:54;14.60;99.90
33460;DHT22;19795;53.160;6.612;2023-07-24T19:33:23;14.60;99.90
33460;DHT22;19795;53.160;6.612;2023-07-24T19:35:49;14.50;99.90
33460;DHT22;19795;53.160;6.612;2023-07-24T19:38:15;14.50;99.90
33460;DHT22;19795;53.160;6.612;2023-07-24T19:40:41;14.50;99.90
33460;DHT22;19795;53.160;6.612;2023-07-24T19:43:07;14.50;99.90
33460;DHT22;19795;53.160;6.612;2023-07-24T19:45:39;14.50;99.90
33460;DHT22;19795;53.160;6.612;2023-07-24T19:48:05;14.50;99.90
33460;DHT22;19795;53.160;6.612;2023-07-24T19:50:30;14.50;99.90
33460;DHT22;19795;53.160;6.612;2023-07-24T19:52:56;14.40;99.90
33460;DHT22;19795;53.160;6.612;2023-07-24T19:55:22;14.40;99.90